Time;durP1;ratioP1;P1;durP2;ratioP2;P2;SDS_P1;SDS_P2;PMS_P1;PMS_P2;Temp;Humidity;BMP_temperature;BMP_pressure;BME280_temperature;BME280_humidity;BME280_pressure;Samples;Min_cycle;Max_cycle;Signal;HPM_P1;HPM_P2
2022/03/14 00:01:03;;;;;;;7.80;3.93;;;;;;;;;;5097480;28;20768;-72
2022/03/14 00:03:32;;;;;;;7.63;4.63;;;;;;;;;;5098156;28;20491;-72
2022/03/14 00:06:01;;;;;;;7.00;3.57;;;;;;;;;;5097330;28;20451;-72
2022/03/14 00:08:31;;;;;;;9.67;4.20;;;;;;;;;;5096792;28;20448;-72
2022/03/14 00:10:59;;;;;;;9.60;4.73;;;;;;;;;;5099227;28;20452;-71
2022/03/14 00:13:28;;;;;;;7.27;4.70;;;;;;;;;;5117562;28;20537;-71
2022/03/14 00:15:57;;;;;;;7.20;3.87;;;;;;;;;;5119359;28;20506;-71
2022/03/14 00:18:27;;;;;;;9.20;4.23;;;;;;;;;;5114359;28;20451;-72
2022/03/14 00:20:54;;;;;;;12.03;4.13;;;;;;;;;;5100346;28;20470;-72
2022/03/14 00:23:29;;;;;;;6.00;4.07;;;;;;;;;;5100529;28;20582;-72
2022/03/14 00:26:00;;;;;;;7.83;4.30;;;;;;;;;;5100447;28;20469;-72
2022/03/14 00:28:30;;;;;;;7.37;4.23;;;;;;;;;;5101219;28;20724;-71
2022/03/14 00:30:57;;;;;;;6.43;4.20;;;;;;;;;;5101029;28;20459;-72
2022/03/14 00:33:25;;;;;;;8.20;3.73;;;;;;;;;;5116265;28;20467;-72
2022/03/14 00:35:56;;;;;;;5.33;3.70;;;;;;;;;;5121663;27;20470;-72
2022/03/14 00:38:25;;;;;;;5.37;3.57;;;;;;;;;;5120109;27;20465;-72
2022/03/14 00:40:52;;;;;;;7.63;4.43;;;;;;;;;;5109921;28;21016;-72
2022/03/14 00:43:20;;;;;;;8.67;3.87;;;;;;;;;;5101153;28;20498;-72
2022/03/14 00:45:49;;;;;;;6.03;3.93;;;;;;;;;;5100718;28;20459;-72
2022/03/14 00:48:17;;;;;;;10.30;4.10;;;;;;;;;;5100310;28;20463;-72
2022/03/14 00:50:45;;;;;;;7.30;3.53;;;;;;;;;;5099940;28;20470;-72
2022/03/14 00:53:12;;;;;;;7.13;4.43;;;;;;;;;;5100177;28;20507;-72
2022/03/14 00:55:40;;;;;;;6.03;4.30;;;;;;;;;;5100330;28;20481;-71
2022/03/14 00:58:08;;;;;;;9.80;5.27;;;;;;;;;;5099348;28;20538;-72
2022/03/14 01:00:37;;;;;;;12.93;5.10;;;;;;;;;;5100529;28;20459;-72
2022/03/14 01:03:06;;;;;;;8.03;3.80;;;;;;;;;;5100558;28;20450;-71
2022/03/14 01:05:34;;;;;;;8.50;5.30;;;;;;;;;;5120141;27;20462;-71
2022/03/14 01:08:02;;;;;;;8.63;5.23;;;;;;;;;;5120656;27;20466;-71
2022/03/14 01:10:30;;;;;;;8.53;4.40;;;;;;;;;;5120513;27;20565;-71
2022/03/14 01:12:58;;;;;;;5.93;3.60;;;;;;;;;;5120546;27;20461;-71
2022/03/14 01:15:26;;;;;;;6.90;4.67;;;;;;;;;;5121302;28;20474;-71
2022/03/14 01:17:53;;;;;;;10.67;4.40;;;;;;;;;;5120176;27;20531;-71
2022/03/14 01:20:23;;;;;;;13.30;4.83;;;;;;;;;;5120495;27;20477;-71
2022/03/14 01:22:50;;;;;;;7.83;4.70;;;;;;;;;;5120913;27;20470;-71
2022/03/14 01:25:18;;;;;;;7.13;4.50;;;;;;;;;;5120603;27;20518;-71
2022/03/14 01:27:46;;;;;;;11.13;4.37;;;;;;;;;;5118777;27;20477;-72
2022/03/14 01:30:15;;;;;;;9.20;4.93;;;;;;;;;;5121660;27;20757;-71
2022/03/14 01:32:43;;;;;;;8.00;4.60;;;;;;;;;;5119996;27;20557;-71
2022/03/14 01:35:11;;;;;;;7.70;4.20;;;;;;;;;;5119921;27;20807;-71
2022/03/14 01:37:42;;;;;;;8.80;4.60;;;;;;;;;;5119209;27;20568;-71
2022/03/14 01:40:10;;;;;;;8.07;4.00;;;;;;;;;;5119383;27;20543;-71
2022/03/14 01:42:38;;;;;;;6.83;4.63;;;;;;;;;;5118906;27;20473;-71
2022/03/14 01:45:09;;;;;;;10.13;4.67;;;;;;;;;;5119355;27;20499;-71
2022/03/14 01:47:38;;;;;;;7.73;5.97;;;;;;;;;;5118827;27;20551;-71
2022/03/14 01:50:07;;;;;;;9.03;4.20;;;;;;;;;;5119653;27;20461;-71
2022/03/14 01:52:34;;;;;;;9.37;5.07;;;;;;;;;;5118856;28;20463;-71
2022/03/14 01:55:04;;;;;;;7.67;4.43;;;;;;;;;;5117908;27;20867;-71
2022/03/14 01:57:32;;;;;;;6.63;5.33;;;;;;;;;;5117678;27;20886;-72
2022/03/14 02:00:00;;;;;;;8.10;5.20;;;;;;;;;;5118133;27;20451;-72
2022/03/14 02:02:28;;;;;;;6.40;5.13;;;;;;;;;;5117918;27;20450;-72
2022/03/14 02:04:56;;;;;;;7.17;5.10;;;;;;;;;;5117922;28;20729;-72
2022/03/14 02:07:26;;;;;;;8.93;4.83;;;;;;;;;;5117546;28;21005;-72
2022/03/14 02:09:54;;;;;;;6.67;4.63;;;;;;;;;;5117672;27;20462;-72
2022/03/14 02:12:24;;;;;;;6.30;4.07;;;;;;;;;;5116683;27;20875;-72
2022/03/14 02:14:51;;;;;;;8.50;4.53;;;;;;;;;;5117234;27;20451;-72
2022/03/14 02:17:20;;;;;;;7.43;5.10;;;;;;;;;;5117890;27;20461;-72
2022/03/14 02:19:48;;;;;;;8.90;4.20;;;;;;;;;;5117152;28;20455;-72
2022/03/14 02:22:17;;;;;;;8.20;4.63;;;;;;;;;;5116831;27;20463;-72
2022/03/14 02:24:46;;;;;;;9.60;4.57;;;;;;;;;;5117661;28;20489;-72
2022/03/14 02:27:22;;;;;;;9.13;5.53;;;;;;;;;;5117413;28;20450;-72
2022/03/14 02:29:50;;;;;;;9.07;5.43;;;;;;;;;;5117658;27;20467;-72
2022/03/14 02:32:18;;;;;;;9.73;4.70;;;;;;;;;;5116579;27;20457;-72
2022/03/14 02:34:45;;;;;;;7.37;5.23;;;;;;;;;;5116423;28;20792;-72
2022/03/14 02:37:13;;;;;;;10.00;4.60;;;;;;;;;;5116063;28;20451;-72
2022/03/14 02:39:42;;;;;;;6.83;4.70;;;;;;;;;;5117206;27;20454;-72
2022/03/14 02:42:14;;;;;;;7.60;5.10;;;;;;;;;;5116692;27;20733;-72
2022/03/14 02:44:43;;;;;;;6.90;4.50;;;;;;;;;;5116565;27;20573;-72
2022/03/14 02:47:11;;;;;;;7.70;5.00;;;;;;;;;;5116870;27;20458;-72
2022/03/14 02:49:38;;;;;;;9.33;4.03;;;;;;;;;;5113503;28;20470;-72
2022/03/14 02:52:06;;;;;;;8.30;5.40;;;;;;;;;;5096693;28;20451;-72
2022/03/14 02:54:34;;;;;;;8.90;5.00;;;;;;;;;;5096130;28;20862;-72
2022/03/14 02:57:04;;;;;;;8.37;4.47;;;;;;;;;;5108842;28;20462;-72
2022/03/14 02:59:34;;;;;;;9.10;5.10;;;;;;;;;;5115082;28;20529;-72
2022/03/14 03:02:01;;;;;;;8.67;5.30;;;;;;;;;;5116480;28;20754;-72
2022/03/14 03:04:29;;;;;;;9.57;5.77;;;;;;;;;;5116295;28;20555;-71
2022/03/14 03:06:57;;;;;;;8.43;5.00;;;;;;;;;;5116687;28;20454;-71
2022/03/14 03:09:26;;;;;;;7.33;4.43;;;;;;;;;;5116962;28;20529;-71
2022/03/14 03:11:54;;;;;;;8.63;4.77;;;;;;;;;;5116761;28;20447;-71
2022/03/14 03:14:23;;;;;;;7.07;4.77;;;;;;;;;;5100978;28;20471;-71
2022/03/14 03:16:51;;;;;;;9.40;5.17;;;;;;;;;;5114156;28;20820;-71
2022/03/14 03:19:19;;;;;;;8.70;5.00;;;;;;;;;;5116849;28;20948;-71
2022/03/14 03:21:46;;;;;;;7.53;4.77;;;;;;;;;;5116847;28;20801;-71
2022/03/14 03:24:14;;;;;;;9.07;5.07;;;;;;;;;;5097174;28;20745;-71
2022/03/14 03:26:42;;;;;;;9.57;5.67;;;;;;;;;;5095674;28;20881;-71
2022/03/14 03:29:10;;;;;;;9.47;4.80;;;;;;;;;;5096615;28;20459;-71
2022/03/14 03:31:40;;;;;;;10.87;5.57;;;;;;;;;;5109642;28;20450;-71
2022/03/14 03:34:08;;;;;;;10.93;5.40;;;;;;;;;;5116217;28;20811;-71
2022/03/14 03:36:36;;;;;;;7.83;4.90;;;;;;;;;;5115125;28;20469;-71
2022/03/14 03:39:04;;;;;;;9.60;5.57;;;;;;;;;;5115718;28;20487;-71
2022/03/14 03:41:32;;;;;;;9.10;4.67;;;;;;;;;;5115197;28;20466;-71
2022/03/14 03:44:00;;;;;;;10.90;4.93;;;;;;;;;;5114955;28;20677;-71
2022/03/14 03:46:28;;;;;;;7.37;4.33;;;;;;;;;;5115219;28;20469;-71
2022/03/14 03:49:00;;;;;;;8.47;4.90;;;;;;;;;;5116055;28;20446;-71
2022/03/14 03:51:31;;;;;;;6.50;5.00;;;;;;;;;;5113884;28;20451;-71
2022/03/14 03:53:59;;;;;;;6.83;4.87;;;;;;;;;;5102536;28;20463;-71
2022/03/14 03:56:27;;;;;;;8.40;5.67;;;;;;;;;;5099446;28;20461;-71
2022/03/14 03:58:57;;;;;;;11.77;6.33;;;;;;;;;;5100012;28;20458;-71
2022/03/14 04:01:25;;;;;;;12.20;5.60;;;;;;;;;;5102749;28;20458;-71
2022/03/14 04:03:55;;;;;;;9.73;5.23;;;;;;;;;;5118908;28;20719;-71
2022/03/14 04:06:27;;;;;;;8.37;5.50;;;;;;;;;;5118825;27;20470;-71
2022/03/14 04:08:55;;;;;;;9.37;5.50;;;;;;;;;;5119106;27;20889;-72
2022/03/14 04:11:23;;;;;;;10.30;5.70;;;;;;;;;;5118949;27;20463;-71
2022/03/14 04:13:58;;;;;;;10.07;5.33;;;;;;;;;;5117881;27;20867;-71
2022/03/14 04:16:31;;;;;;;7.33;5.23;;;;;;;;;;5118485;27;20470;-71
2022/03/14 04:18:59;;;;;;;10.87;5.37;;;;;;;;;;5118887;27;20458;-71
2022/03/14 04:21:28;;;;;;;7.67;4.40;;;;;;;;;;5118923;27;20486;-71
2022/03/14 04:23:59;;;;;;;12.10;4.67;;;;;;;;;;5118312;27;20447;-71
2022/03/14 04:26:26;;;;;;;11.07;5.80;;;;;;;;;;5118538;27;20463;-71
2022/03/14 04:28:54;;;;;;;8.13;5.17;;;;;;;;;;5118226;27;20531;-71
2022/03/14 04:31:25;;;;;;;10.03;5.30;;;;;;;;;;5118651;27;20841;-71
2022/03/14 04:33:53;;;;;;;8.30;5.40;;;;;;;;;;5117784;27;20527;-71
2022/03/14 04:36:21;;;;;;;10.33;5.33;;;;;;;;;;5117351;27;20467;-71
2022/03/14 04:38:52;;;;;;;8.13;5.70;;;;;;;;;;5117914;27;20442;-71
2022/03/14 04:41:21;;;;;;;8.47;5.70;;;;;;;;;;5117614;27;20475;-71
2022/03/14 04:43:49;;;;;;;11.13;5.97;;;;;;;;;;5118257;27;20641;-71
2022/03/14 04:46:16;;;;;;;9.17;5.20;;;;;;;;;;5118081;27;20660;-72
2022/03/14 04:48:44;;;;;;;11.37;5.60;;;;;;;;;;5117851;27;20450;-72
2022/03/14 04:51:12;;;;;;;9.53;5.37;;;;;;;;;;5117653;27;21122;-72
2022/03/14 04:53:40;;;;;;;18.90;6.73;;;;;;;;;;5117993;27;20462;-72
2022/03/14 04:56:09;;;;;;;14.73;5.40;;;;;;;;;;5117891;27;20466;-72
2022/03/14 04:58:37;;;;;;;7.30;5.23;;;;;;;;;;5118756;27;20469;-72
2022/03/14 05:01:04;;;;;;;9.67;5.30;;;;;;;;;;5118440;27;20527;-72
2022/03/14 05:03:32;;;;;;;7.27;4.70;;;;;;;;;;5117488;27;20450;-72
2022/03/14 05:06:00;;;;;;;19.87;5.50;;;;;;;;;;5116112;27;20493;-71
2022/03/14 05:08:28;;;;;;;10.60;6.17;;;;;;;;;;5117962;27;20956;-71
2022/03/14 05:10:57;;;;;;;7.97;5.50;;;;;;;;;;5117526;28;20462;-71
2022/03/14 05:13:26;;;;;;;10.40;6.40;;;;;;;;;;5117406;27;20458;-71
2022/03/14 05:15:54;;;;;;;8.77;5.63;;;;;;;;;;5117528;27;20494;-71
2022/03/14 05:18:28;;;;;;;10.67;6.23;;;;;;;;;;5116627;27;20460;-71
2022/03/14 05:20:56;;;;;;;9.43;6.83;;;;;;;;;;5116263;27;20907;-72
2022/03/14 05:23:24;;;;;;;10.63;5.50;;;;;;;;;;5117117;27;20851;-71
2022/03/14 05:25:52;;;;;;;10.73;6.10;;;;;;;;;;5118011;27;20907;-71
2022/03/14 05:28:20;;;;;;;10.17;6.00;;;;;;;;;;5117350;27;20558;-71
2022/03/14 05:30:51;;;;;;;14.80;5.37;;;;;;;;;;5115579;27;20574;-71
2022/03/14 05:33:19;;;;;;;10.83;5.80;;;;;;;;;;5116516;28;20473;-71
2022/03/14 05:35:49;;;;;;;8.93;5.33;;;;;;;;;;5116023;27;20622;-71
2022/03/14 05:38:16;;;;;;;10.07;5.97;;;;;;;;;;5117604;27;20834;-72
2022/03/14 05:40:53;;;;;;;11.30;6.07;;;;;;;;;;5117252;27;20726;-71
2022/03/14 05:43:21;;;;;;;13.03;5.97;;;;;;;;;;5116393;27;20458;-72
2022/03/14 05:45:50;;;;;;;9.63;6.10;;;;;;;;;;5117801;27;20551;-71
2022/03/14 05:48:19;;;;;;;9.90;5.73;;;;;;;;;;5117145;28;20447;-71
2022/03/14 05:50:46;;;;;;;9.50;5.33;;;;;;;;;;5117044;27;20458;-71
2022/03/14 05:53:16;;;;;;;9.37;5.80;;;;;;;;;;5117860;27;20734;-72
2022/03/14 05:55:44;;;;;;;8.27;4.87;;;;;;;;;;5117385;27;20464;-71
2022/03/14 05:58:12;;;;;;;11.30;5.80;;;;;;;;;;5117275;28;20454;-71
2022/03/14 06:00:40;;;;;;;7.87;5.50;;;;;;;;;;5116795;27;20463;-72
2022/03/14 06:03:12;;;;;;;13.70;5.90;;;;;;;;;;5117233;27;21048;-71
2022/03/14 06:05:40;;;;;;;11.13;5.57;;;;;;;;;;5114785;27;20482;-71
2022/03/14 06:08:07;;;;;;;9.20;5.40;;;;;;;;;;5115917;27;21025;-71
2022/03/14 06:10:35;;;;;;;10.73;6.30;;;;;;;;;;5116187;27;20561;-72
2022/03/14 06:13:03;;;;;;;17.83;5.90;;;;;;;;;;5115732;27;20551;-72
2022/03/14 06:15:31;;;;;;;12.33;6.77;;;;;;;;;;5114517;28;20557;-72
2022/03/14 06:17:59;;;;;;;14.30;6.37;;;;;;;;;;5115451;27;20451;-72
2022/03/14 06:20:29;;;;;;;12.70;6.30;;;;;;;;;;5115493;27;20465;-72
2022/03/14 06:22:57;;;;;;;17.13;6.77;;;;;;;;;;5115167;27;20483;-71
2022/03/14 06:25:24;;;;;;;13.03;7.73;;;;;;;;;;5115145;28;20810;-71
2022/03/14 06:27:56;;;;;;;14.30;6.40;;;;;;;;;;5107612;27;20450;-72
2022/03/14 06:30:24;;;;;;;10.00;6.10;;;;;;;;;;5110635;28;20453;-71
2022/03/14 06:32:52;;;;;;;16.00;7.50;;;;;;;;;;5111605;27;20777;-71
2022/03/14 06:35:20;;;;;;;9.70;6.37;;;;;;;;;;5094271;28;20761;-71
2022/03/14 06:37:50;;;;;;;9.93;6.03;;;;;;;;;;5092550;28;20528;-71
2022/03/14 06:40:27;;;;;;;15.47;7.27;;;;;;;;;;5092516;28;20562;-71
2022/03/14 06:42:55;;;;;;;10.37;5.90;;;;;;;;;;5092215;28;20607;-71
2022/03/14 06:45:23;;;;;;;12.67;6.40;;;;;;;;;;5097706;28;20550;-72
2022/03/14 06:47:54;;;;;;;13.67;6.37;;;;;;;;;;5114157;27;20530;-71
2022/03/14 06:50:23;;;;;;;11.20;6.40;;;;;;;;;;5114196;28;20467;-71
2022/03/14 06:52:52;;;;;;;12.53;6.27;;;;;;;;;;5112263;27;20493;-71
2022/03/14 06:55:20;;;;;;;14.40;7.43;;;;;;;;;;5113275;27;20470;-71
2022/03/14 06:57:48;;;;;;;13.10;6.33;;;;;;;;;;5111580;28;20446;-71
2022/03/14 07:00:17;;;;;;;10.23;6.13;;;;;;;;;;5108237;28;20459;-71
2022/03/14 07:02:45;;;;;;;12.47;6.83;;;;;;;;;;5109225;28;20467;-71
2022/03/14 07:05:20;;;;;;;10.20;5.57;;;;;;;;;;5109693;28;21145;-70
2022/03/14 07:07:55;;;;;;;12.40;6.23;;;;;;;;;;5105100;28;20834;-71
2022/03/14 07:10:23;;;;;;;19.50;6.83;;;;;;;;;;5094380;28;20471;-72
2022/03/14 07:12:51;;;;;;;10.50;6.60;;;;;;;;;;5114096;28;20500;-71
2022/03/14 07:15:19;;;;;;;9.10;5.60;;;;;;;;;;5114593;28;20463;-72
2022/03/14 07:17:47;;;;;;;9.17;6.47;;;;;;;;;;5114259;28;20863;-71
2022/03/14 07:20:15;;;;;;;11.70;7.20;;;;;;;;;;5113600;28;20458;-72
2022/03/14 07:22:58;;;;;;;14.33;6.93;;;;;;;;;;5107802;28;20451;-72
2022/03/14 07:25:29;;;;;;;10.27;6.77;;;;;;;;;;5108344;28;20478;-73
2022/03/14 07:28:00;;;;;;;12.53;7.03;;;;;;;;;;5118772;27;20453;-72
2022/03/14 07:30:31;;;;;;;12.97;6.67;;;;;;;;;;5118189;27;20454;-72
2022/03/14 07:33:00;;;;;;;14.60;5.60;;;;;;;;;;5117286;27;20457;-71
2022/03/14 07:35:29;;;;;;;15.57;6.43;;;;;;;;;;5118509;27;20458;-72
2022/03/14 07:37:58;;;;;;;12.30;6.83;;;;;;;;;;5118844;27;20927;-71
2022/03/14 07:40:26;;;;;;;11.23;6.00;;;;;;;;;;5119075;27;20523;-71
2022/03/14 07:43:01;;;;;;;10.23;6.17;;;;;;;;;;5118345;27;20459;-71
2022/03/14 07:45:29;;;;;;;19.70;6.30;;;;;;;;;;5114578;28;20497;-71
2022/03/14 07:47:58;;;;;;;11.63;6.40;;;;;;;;;;5112107;27;20473;-72
2022/03/14 07:50:26;;;;;;;11.17;6.90;;;;;;;;;;5114126;27;20718;-72
2022/03/14 07:52:57;;;;;;;13.00;6.33;;;;;;;;;;5117569;27;20455;-72
2022/03/14 07:55:52;;;;;;;13.17;7.33;;;;;;;;;;5112372;28;20759;-72
2022/03/14 07:58:24;;;;;;;11.60;6.60;;;;;;;;;;5109329;28;20786;-72
2022/03/14 08:00:54;;;;;;;10.30;7.10;;;;;;;;;;5115713;28;20458;-72
2022/03/14 08:03:23;;;;;;;14.27;6.43;;;;;;;;;;5117178;27;20455;-72
2022/03/14 08:05:58;;;;;;;9.77;6.67;;;;;;;;;;5118833;27;20491;-71
2022/03/14 08:08:26;;;;;;;10.60;7.00;;;;;;;;;;5109039;27;21057;-72
2022/03/14 08:11:05;;;;;;;12.23;6.53;;;;;;;;;;5113345;27;20504;-73
2022/03/14 08:13:55;;;;;;;10.90;6.57;;;;;;;;;;5116074;27;20849;-71
2022/03/14 08:16:34;;;;;;;11.83;6.27;;;;;;;;;;5117333;27;21118;-73
2022/03/14 08:19:06;;;;;;;11.77;6.80;;;;;;;;;;5117978;27;20465;-73
2022/03/14 08:21:35;;;;;;;10.63;6.33;;;;;;;;;;5118728;27;20473;-73
2022/03/14 08:24:03;;;;;;;11.70;6.73;;;;;;;;;;5119785;27;20494;-72
2022/03/14 08:26:33;;;;;;;10.97;7.10;;;;;;;;;;5108360;28;20466;-71
2022/03/14 08:29:03;;;;;;;12.97;7.30;;;;;;;;;;5099269;28;20804;-73
2022/03/14 08:31:34;;;;;;;12.93;6.03;;;;;;;;;;5098588;28;20443;-73
2022/03/14 08:34:11;;;;;;;13.83;7.40;;;;;;;;;;5108313;28;20462;-71
2022/03/14 08:36:41;;;;;;;11.40;6.50;;;;;;;;;;5103973;28;20474;-73
2022/03/14 08:39:10;;;;;;;11.43;6.13;;;;;;;;;;5113825;27;20970;-72
2022/03/14 08:41:41;;;;;;;17.97;6.83;;;;;;;;;;5104503;28;20452;-73
2022/03/14 08:44:09;;;;;;;13.47;7.77;;;;;;;;;;5103327;27;20791;-73
2022/03/14 08:46:42;;;;;;;13.90;7.10;;;;;;;;;;5118681;27;20486;-72
2022/03/14 08:49:22;;;;;;;9.53;6.40;;;;;;;;;;5098367;28;20542;-73
2022/03/14 08:51:57;;;;;;;12.60;7.27;;;;;;;;;;5100358;28;21123;-72
2022/03/14 08:54:31;;;;;;;11.00;7.10;;;;;;;;;;5111514;28;20450;-73
2022/03/14 08:57:05;;;;;;;25.17;8.77;;;;;;;;;;5115528;27;21006;-72
2022/03/14 08:59:42;;;;;;;8.10;6.50;;;;;;;;;;5118502;27;20463;-72
2022/03/14 09:02:13;;;;;;;12.70;7.17;;;;;;;;;;5116333;28;21037;-72
2022/03/14 09:04:43;;;;;;;15.90;10.43;;;;;;;;;;5107835;27;20457;-71
2022/03/14 09:07:11;;;;;;;10.37;6.90;;;;;;;;;;5113810;28;20521;-72
2022/03/14 09:09:41;;;;;;;11.67;7.43;;;;;;;;;;5112180;27;20459;-73
2022/03/14 09:12:29;;;;;;;10.43;7.23;;;;;;;;;;5115910;27;20451;-71
2022/03/14 09:15:11;;;;;;;17.63;8.30;;;;;;;;;;5116972;27;20458;-73
2022/03/14 09:17:52;;;;;;;11.73;6.80;;;;;;;;;;5098575;27;20475;-72
2022/03/14 09:20:22;;;;;;;11.97;7.47;;;;;;;;;;5106241;27;20727;-72
2022/03/14 09:22:52;;;;;;;13.27;6.83;;;;;;;;;;5117972;27;20459;-72
2022/03/14 09:25:26;;;;;;;13.97;6.83;;;;;;;;;;5111560;28;20458;-71
2022/03/14 09:28:07;;;;;;;11.00;7.30;;;;;;;;;;5111327;27;20712;-72
2022/03/14 09:30:44;;;;;;;10.47;6.80;;;;;;;;;;5110764;27;20444;-72
2022/03/14 09:33:16;;;;;;;12.13;7.70;;;;;;;;;;5113768;27;20454;-73
2022/03/14 09:35:45;;;;;;;12.40;7.90;;;;;;;;;;5115658;27;20703;-70
2022/03/14 09:38:19;;;;;;;16.23;8.23;;;;;;;;;;5110057;27;20531;-73
2022/03/14 09:43:43;;;;;;;11.57;7.73;;;;;;;;;;5093979;28;20455;-72
2022/03/14 09:46:23;;;;;;;12.67;9.27;;;;;;;;;;5097090;28;20478;-72
2022/03/14 09:49:19;;;;;;;14.90;9.70;;;;;;;;;;5102732;28;20561;-72
2022/03/14 09:51:50;;;;;;;12.63;8.07;;;;;;;;;;5114602;27;20482;-73
2022/03/14 09:57:12;;;;;;;13.03;7.37;;;;;;;;;;5115265;27;20450;-72
2022/03/14 09:59:45;;;;;;;10.50;6.87;;;;;;;;;;5115521;27;20483;-72
2022/03/14 10:02:15;;;;;;;14.23;7.87;;;;;;;;;;5115063;27;20520;-73
2022/03/14 10:04:45;;;;;;;9.27;6.73;;;;;;;;;;5104101;27;20459;-72
2022/03/14 10:07:14;;;;;;;14.47;8.00;;;;;;;;;;5101723;28;20474;-73
2022/03/14 10:09:44;;;;;;;9.97;6.80;;;;;;;;;;5099519;28;20478;-73
2022/03/14 10:12:15;;;;;;;10.47;7.27;;;;;;;;;;5108574;27;20442;-74
2022/03/14 10:14:53;;;;;;;10.30;7.03;;;;;;;;;;5110937;28;20540;-73
2022/03/14 10:17:37;;;;;;;10.40;7.20;;;;;;;;;;5107206;27;20901;-74
2022/03/14 10:20:12;;;;;;;11.00;7.00;;;;;;;;;;5115060;28;20453;-74
2022/03/14 10:22:40;;;;;;;10.70;7.60;;;;;;;;;;5115100;27;20542;-73
2022/03/14 10:25:14;;;;;;;10.40;6.30;;;;;;;;;;5114130;28;20455;-74
2022/03/14 10:27:43;;;;;;;9.00;6.70;;;;;;;;;;5115056;27;20633;-73
2022/03/14 10:30:28;;;;;;;9.00;6.37;;;;;;;;;;5114788;28;21047;-74
2022/03/14 10:33:03;;;;;;;12.33;6.70;;;;;;;;;;5107951;27;20558;-73
2022/03/14 10:35:39;;;;;;;9.83;6.30;;;;;;;;;;5114716;27;20455;-73
2022/03/14 10:38:07;;;;;;;13.67;7.20;;;;;;;;;;5115638;27;20724;-73
2022/03/14 10:40:39;;;;;;;10.50;6.70;;;;;;;;;;5116495;27;20490;-74
2022/03/14 10:43:09;;;;;;;9.47;6.33;;;;;;;;;;5108520;27;20477;-72
2022/03/14 10:48:38;;;;;;;9.27;6.17;;;;;;;;;;5091604;28;20451;-73
2022/03/14 10:51:10;;;;;;;8.80;6.17;;;;;;;;;;5093641;28;20509;-74
2022/03/14 10:53:47;;;;;;;8.93;6.20;;;;;;;;;;5095442;28;20459;-74
2022/03/14 10:56:17;;;;;;;10.23;6.50;;;;;;;;;;5095494;28;20516;-73
2022/03/14 10:58:45;;;;;;;8.87;6.10;;;;;;;;;;5094663;28;20490;-73
2022/03/14 11:04:00;;;;;;;9.13;6.73;;;;;;;;;;5100351;28;20455;-73
2022/03/14 11:06:29;;;;;;;12.07;5.50;;;;;;;;;;5094714;28;20566;-73
2022/03/14 11:08:59;;;;;;;9.40;5.80;;;;;;;;;;5094477;28;20451;-73
2022/03/14 11:11:28;;;;;;;9.90;6.07;;;;;;;;;;5101802;28;20467;-73
2022/03/14 11:14:02;;;;;;;8.70;5.50;;;;;;;;;;5115213;28;20475;-73
2022/03/14 11:16:34;;;;;;;7.63;6.33;;;;;;;;;;5106281;28;20844;-74
2022/03/14 11:19:13;;;;;;;9.43;6.20;;;;;;;;;;5103463;28;20455;-74
2022/03/14 11:21:41;;;;;;;10.03;6.80;;;;;;;;;;5094956;28;20459;-73
2022/03/14 11:24:10;;;;;;;10.43;5.60;;;;;;;;;;5093529;28;20452;-73
2022/03/14 11:26:46;;;;;;;8.17;6.10;;;;;;;;;;5093940;28;20926;-73
2022/03/14 11:29:22;;;;;;;7.67;5.60;;;;;;;;;;5094830;28;20451;-73
2022/03/14 11:31:55;;;;;;;12.27;4.50;;;;;;;;;;5113647;28;20888;-74
2022/03/14 11:34:29;;;;;;;9.20;5.40;;;;;;;;;;5099611;28;20483;-73
2022/03/14 11:39:41;;;;;;;8.03;5.20;;;;;;;;;;5088695;28;20580;-74
2022/03/14 11:42:15;;;;;;;14.00;6.50;;;;;;;;;;5094552;28;20766;-73
2022/03/14 11:44:54;;;;;;;9.73;6.33;;;;;;;;;;5112379;28;20873;-74
2022/03/14 11:47:33;;;;;;;10.37;7.70;;;;;;;;;;5114168;28;20482;-73
2022/03/14 11:50:02;;;;;;;8.80;5.47;;;;;;;;;;5112863;28;20463;-73
2022/03/14 11:55:33;;;;;;;9.93;6.43;;;;;;;;;;5111202;28;20450;-72
2022/03/14 11:58:01;;;;;;;9.73;6.07;;;;;;;;;;5082425;28;20457;-73
2022/03/14 12:00:38;;;;;;;14.10;6.37;;;;;;;;;;5112943;28;20447;-71
2022/03/14 12:07:05;;;;;;;11.40;6.80;;;;;;;;;;5056728;28;20538;-71
2022/03/14 12:09:52;;;;;;;7.93;5.63;;;;;;;;;;5013323;28;20455;-73
2022/03/14 12:12:37;;;;;;;10.73;7.20;;;;;;;;;;5096820;28;20724;-73
2022/03/14 12:15:06;;;;;;;9.70;6.67;;;;;;;;;;5097672;28;20459;-73
2022/03/14 12:17:42;;;;;;;10.57;6.60;;;;;;;;;;5096227;28;20459;-73
2022/03/14 12:20:17;;;;;;;9.63;6.60;;;;;;;;;;5095787;28;20455;-73
2022/03/14 12:22:51;;;;;;;10.17;7.20;;;;;;;;;;5103605;27;20452;-73
2022/03/14 12:25:36;;;;;;;9.63;6.07;;;;;;;;;;5115932;27;20458;-72
2022/03/14 12:28:31;;;;;;;8.50;6.20;;;;;;;;;;5102988;28;20784;-72
2022/03/14 12:31:18;;;;;;;11.47;7.23;;;;;;;;;;5103663;28;20471;-73
2022/03/14 12:34:13;;;;;;;10.00;5.50;;;;;;;;;;5094951;28;20470;-72
2022/03/14 12:37:36;;;;;;;10.80;6.97;;;;;;;;;;5102499;27;20485;-72
2022/03/14 12:40:15;;;;;;;11.07;6.30;;;;;;;;;;5095292;28;20696;-73
2022/03/14 12:42:52;;;;;;;8.80;7.27;;;;;;;;;;5096190;28;20459;-72
2022/03/14 12:45:26;;;;;;;13.90;8.53;;;;;;;;;;5105514;27;20722;-73
2022/03/14 12:48:06;;;;;;;9.47;6.67;;;;;;;;;;5111684;27;20486;-72
2022/03/14 12:51:09;;;;;;;13.00;8.50;;;;;;;;;;5113410;27;20457;-72
2022/03/14 12:53:43;;;;;;;12.43;8.10;;;;;;;;;;5029604;28;21083;-72
2022/03/14 12:56:18;;;;;;;11.70;7.47;;;;;;;;;;5015016;28;20756;-72
2022/03/14 12:59:16;;;;;;;16.00;10.60;;;;;;;;;;5024784;28;20462;-72
2022/03/14 13:01:51;;;;;;;13.57;8.23;;;;;;;;;;5028076;28;20465;-73
2022/03/14 13:04:29;;;;;;;11.67;8.57;;;;;;;;;;5098767;27;20462;-73
2022/03/14 13:07:04;;;;;;;11.73;8.53;;;;;;;;;;5115478;27;20482;-74
2022/03/14 13:09:41;;;;;;;13.30;8.80;;;;;;;;;;5116638;27;20753;-73
2022/03/14 13:12:45;;;;;;;14.43;8.90;;;;;;;;;;5101026;28;20451;-74
2022/03/14 13:15:19;;;;;;;13.70;9.57;;;;;;;;;;5097966;28;20738;-74
2022/03/14 13:17:50;;;;;;;16.37;11.23;;;;;;;;;;5097849;28;20463;-73
2022/03/14 13:20:36;;;;;;;19.63;12.80;;;;;;;;;;5105510;28;20779;-74
2022/03/14 13:23:15;;;;;;;15.53;10.00;;;;;;;;;;5111242;28;20878;-73
2022/03/14 13:26:13;;;;;;;16.50;10.53;;;;;;;;;;5117455;27;20906;-72
2022/03/14 13:28:43;;;;;;;19.77;10.90;;;;;;;;;;5106788;28;20521;-73
2022/03/14 13:31:11;;;;;;;15.40;9.30;;;;;;;;;;5104775;27;20452;-73
2022/03/14 13:33:54;;;;;;;15.30;10.30;;;;;;;;;;5107343;27;20456;-72
2022/03/14 13:39:37;;;;;;;13.33;9.00;;;;;;;;;;5104806;28;20469;-74
2022/03/14 13:42:26;;;;;;;15.50;9.97;;;;;;;;;;5108338;28;20455;-71
2022/03/14 13:45:09;;;;;;;15.97;10.00;;;;;;;;;;5107086;27;20529;-75
2022/03/14 13:56:39;;;;;;;11.13;9.00;;;;;;;;;;5093965;28;20507;-72
2022/03/14 13:59:22;;;;;;;;;;;;;;;;;;;;;
2022/03/14 14:01:59;;;;;;;13.50;9.83;;;;;;;;;;5107089;27;20461;-73
2022/03/14 14:04:28;;;;;;;11.73;8.97;;;;;;;;;;5116015;27;20461;-73
2022/03/14 14:06:58;;;;;;;15.97;9.10;;;;;;;;;;5117354;27;20877;-73
2022/03/14 14:09:29;;;;;;;9.50;7.53;;;;;;;;;;5101344;28;20628;-73
2022/03/14 14:12:01;;;;;;;12.73;8.27;;;;;;;;;;5095823;28;20719;-74
2022/03/14 14:14:35;;;;;;;13.40;9.00;;;;;;;;;;5095162;28;20480;-75
2022/03/14 14:20:23;;;;;;;13.27;8.93;;;;;;;;;;5112412;27;20453;-74
2022/03/14 14:22:53;;;;;;;10.93;8.83;;;;;;;;;;5116166;27;20454;-74
2022/03/14 14:25:41;;;;;;;12.10;9.60;;;;;;;;;;5104192;28;21074;-73
2022/03/14 14:28:11;;;;;;;16.93;10.10;;;;;;;;;;5106354;28;20512;-73
2022/03/14 14:30:44;;;;;;;12.53;9.03;;;;;;;;;;5116112;27;20490;-73
2022/03/14 14:33:14;;;;;;;16.00;10.70;;;;;;;;;;5112323;28;20446;-73
2022/03/14 14:35:43;;;;;;;13.60;9.90;;;;;;;;;;5111043;27;20450;-73
2022/03/14 14:38:11;;;;;;;14.27;11.70;;;;;;;;;;5109475;28;20467;-73
2022/03/14 14:40:40;;;;;;;15.70;10.10;;;;;;;;;;5108550;27;20450;-73
2022/03/14 14:43:23;;;;;;;23.37;12.93;;;;;;;;;;5110685;27;20455;-73
2022/03/14 14:46:04;;;;;;;15.13;11.20;;;;;;;;;;5097570;28;20493;-73
2022/03/14 14:48:43;;;;;;;15.27;10.97;;;;;;;;;;5100870;28;20550;-73
2022/03/14 14:51:22;;;;;;;16.50;9.67;;;;;;;;;;5101467;28;20779;-73
2022/03/14 14:54:02;;;;;;;11.90;9.37;;;;;;;;;;5093748;28;20487;-73
2022/03/14 14:56:41;;;;;;;18.40;9.60;;;;;;;;;;5093932;28;20455;-74
2022/03/14 14:59:16;;;;;;;11.90;9.57;;;;;;;;;;5102296;28;20454;-74
2022/03/14 15:01:44;;;;;;;14.47;10.10;;;;;;;;;;5108701;28;20462;-74
2022/03/14 15:04:21;;;;;;;13.63;9.47;;;;;;;;;;5113909;28;20458;-74
2022/03/14 15:07:22;;;;;;;11.57;9.03;;;;;;;;;;5114284;27;20458;-76
2022/03/14 15:09:59;;;;;;;12.13;8.60;;;;;;;;;;5069078;28;20482;-74
2022/03/14 15:12:28;;;;;;;11.43;8.23;;;;;;;;;;5103229;28;20462;-74
2022/03/14 15:15:03;;;;;;;10.43;7.00;;;;;;;;;;5112777;27;20454;-74
2022/03/14 15:17:36;;;;;;;12.13;7.97;;;;;;;;;;5097963;28;20458;-73
2022/03/14 15:20:09;;;;;;;13.70;8.20;;;;;;;;;;5103797;28;20444;-74
2022/03/14 15:22:57;;;;;;;10.47;7.40;;;;;;;;;;5102477;28;20466;-74
2022/03/14 15:25:30;;;;;;;12.03;8.00;;;;;;;;;;5097470;28;20530;-74
2022/03/14 15:28:02;;;;;;;10.03;7.00;;;;;;;;;;5112179;28;20793;-74
2022/03/14 15:31:02;;;;;;;11.10;8.00;;;;;;;;;;5100606;28;20811;-74
2022/03/14 15:33:58;;;;;;;11.27;7.37;;;;;;;;;;5088694;28;20456;-74
2022/03/14 15:36:39;;;;;;;13.73;8.70;;;;;;;;;;5075100;28;20465;-73
2022/03/14 15:39:18;;;;;;;11.33;7.20;;;;;;;;;;5092804;28;20550;-74
2022/03/14 15:42:07;;;;;;;14.00;7.20;;;;;;;;;;5093057;28;20451;-74